Terminal Aerodrome Forecast
Issued by NWS

Home | Current Version | Previous Version | Text Only | Print | Product List | Glossary On
Versions: 1 2 3 4 5 6 7 8 9 10 11 12 13 14 15 16
405
FTUS43 KBIS 281122
TAFJMS
TAF
KJMS 281122Z 2812/2912 35009KT P6SM SCT008 BKN045
     FM281500 32013G23KT P6SM FEW010 SCT045
     FM281900 32014G25KT P6SM FEW045 FEW200
     FM290100 33009KT P6SM FEW060 FEW250
     FM290300 32005KT P6SM FEW045 FEW250=

USA.gov is the U.S. government's official web portal to all federal, state and local government web resources and services.